Merbes-le-Chateau, Belgium
Current Conditions -  °F | °C
As of 3:50 PM on Sunday 21 Dec 2014 (Local Time) from EBCI Reporting Station
Light Rain Light Rain  
Wind Chill: 37°   Ceiling: 1500
Heat Index: 45°   Visibility: 2.5mi
Dew Point: 43°   Wind: 18mph
Humidity: 93%   Direction: 230°SW
Pressure: 30.36"   Gusts: NA
Location:  50.32°N, 4.16°E
Report Text: EBCI 211450Z 23016KT 4000 -RADZ BR SCT007 BKN015 07/06 Q1028 TEMPO 22015G25KT 2500 RADZ BR BKN012
Loading
Personal Weather Stations






























Interactive Weather Map New forecast layout! Learn more

10-Day Weather Forecast

Advertisements
Track Severe Weather on mobile